Time;durP1;ratioP1;P1;durP2;ratioP2;P2;SDS_P1;SDS_P2;PMS_P1;PMS_P2;Temp;Humidity;BMP_temperature;BMP_pressure;BME280_temperature;BME280_humidity;BME280_pressure;Samples;Min_cycle;Max_cycle;Signal;HPM_P1;HPM_P2
2022/01/26 00:06:29;;;;;;;94.90;26.10;;;;;;;;;;5067605;28;20094;-77
2022/01/26 00:08:55;;;;;;;90.50;25.05;;;;;;;;;;5068118;28;20283;-76
2022/01/26 00:11:22;;;;;;;95.50;27.38;;;;;;;;;;5051406;28;20566;-77
2022/01/26 00:13:48;;;;;;;96.53;27.60;;;;;;;;;;5067651;28;20048;-76
2022/01/26 00:18:51;;;;;;;70.00;20.43;;;;;;;;;;5067515;28;20097;-76
2022/01/26 00:21:27;;;;;;;94.38;25.80;;;;;;;;;;5067321;28;20071;-76
2022/01/26 00:29:16;;;;;;;72.90;22.10;;;;;;;;;;5067964;28;20053;-76
2022/01/26 00:40:06;;;;;;;89.60;25.13;;;;;;;;;;5067608;28;20045;-77
2022/01/26 00:42:37;;;;;;;92.68;25.40;;;;;;;;;;5067304;28;20048;-77
2022/01/26 00:45:04;;;;;;;101.82;27.30;;;;;;;;;;5067376;28;20115;-76
2022/01/26 00:47:30;;;;;;;97.60;25.38;;;;;;;;;;5067571;28;20055;-77
2022/01/26 00:50:01;;;;;;;99.38;27.20;;;;;;;;;;5067107;28;20087;-77
2022/01/26 00:52:53;;;;;;;102.00;26.10;;;;;;;;;;5069802;28;20437;-77
2022/01/26 00:55:15;;;;;;;96.50;25.98;;;;;;;;;;5070778;28;20049;-76
2022/01/26 00:57:42;;;;;;;91.07;23.75;;;;;;;;;;5070537;28;20102;-76
2022/01/26 01:00:09;;;;;;;99.65;26.73;;;;;;;;;;5072479;28;20045;-76
2022/01/26 01:02:36;;;;;;;102.28;26.05;;;;;;;;;;5070550;28;20083;-77
2022/01/26 01:05:08;;;;;;;92.43;25.55;;;;;;;;;;5054544;28;20074;-77
2022/01/26 01:07:37;;;;;;;103.32;26.45;;;;;;;;;;5070733;28;20049;-77
2022/01/26 01:10:04;;;;;;;96.55;25.65;;;;;;;;;;5071158;28;20040;-76
2022/01/26 01:12:32;;;;;;;95.00;25.23;;;;;;;;;;5053885;28;20040;-77
2022/01/26 01:14:58;;;;;;;90.13;24.52;;;;;;;;;;5070867;28;20056;-77
2022/01/26 01:17:32;;;;;;;105.30;25.85;;;;;;;;;;5071084;28;20157;-76
2022/01/26 01:20:21;;;;;;;98.57;25.95;;;;;;;;;;5070710;28;20076;-76
2022/01/26 01:26:00;;;;;;;96.75;24.67;;;;;;;;;;5070647;28;20049;-76
2022/01/26 01:30:42;;;;;;;103.63;26.20;;;;;;;;;;5070398;28;20084;-77
2022/01/26 01:33:10;;;;;;;91.55;23.70;;;;;;;;;;5069941;28;20492;-76
2022/01/26 01:35:41;;;;;;;94.68;25.08;;;;;;;;;;5069461;28;20515;-77
2022/01/26 01:38:16;;;;;;;98.50;25.45;;;;;;;;;;5070551;28;20434;-76
2022/01/26 01:40:51;;;;;;;96.97;25.63;;;;;;;;;;5070031;28;20059;-76
2022/01/26 01:43:19;;;;;;;99.72;24.70;;;;;;;;;;5071470;28;20102;-77
2022/01/26 01:45:48;;;;;;;99.85;25.25;;;;;;;;;;5053114;28;20055;-76
2022/01/26 01:48:19;;;;;;;90.15;23.77;;;;;;;;;;5070507;28;20037;-76
2022/01/26 01:50:46;;;;;;;96.70;25.52;;;;;;;;;;5069779;28;20044;-76
2022/01/26 01:53:13;;;;;;;93.25;23.52;;;;;;;;;;5069853;28;20105;-76
2022/01/26 01:55:43;;;;;;;98.03;24.30;;;;;;;;;;5053314;28;20056;-77
2022/01/26 01:58:09;;;;;;;94.75;24.13;;;;;;;;;;5069932;28;20048;-76
2022/01/26 02:00:36;;;;;;;90.25;23.63;;;;;;;;;;5069782;28;20047;-77
2022/01/26 02:03:03;;;;;;;83.20;23.10;;;;;;;;;;5052687;28;20040;-77
2022/01/26 02:05:29;;;;;;;89.07;23.70;;;;;;;;;;5070414;28;20499;-76
2022/01/26 02:07:55;;;;;;;76.18;22.42;;;;;;;;;;5069830;28;20550;-77
2022/01/26 02:10:23;;;;;;;85.78;23.45;;;;;;;;;;5069635;28;20048;-77
2022/01/26 02:12:50;;;;;;;77.88;22.88;;;;;;;;;;5069230;28;20048;-76
2022/01/26 02:15:25;;;;;;;70.53;20.77;;;;;;;;;;5069202;28;20053;-76
2022/01/26 02:20:57;;;;;;;79.00;22.52;;;;;;;;;;5069325;28;20063;-77
2022/01/26 02:56:18;;;;;;;70.43;22.00;;;;;;;;;;5068827;28;20056;-77
2022/01/26 03:09:22;;;;;;;72.18;21.38;;;;;;;;;;5068886;28;20141;-77
2022/01/26 03:11:48;;;;;;;78.75;22.40;;;;;;;;;;5064441;28;20544;-76
2022/01/26 03:16:47;;;;;;;72.75;20.88;;;;;;;;;;5081692;28;20080;-76
2022/01/26 03:21:55;;;;;;;78.85;20.40;;;;;;;;;;5081323;28;20086;-76
2022/01/26 03:30:21;;;;;;;60.70;18.10;;;;;;;;;;5029380;28;20246;-76
2022/01/26 03:35:18;;;;;;;66.22;18.38;;;;;;;;;;5031560;28;20098;-76
2022/01/26 03:37:54;;;;;;;73.28;20.05;;;;;;;;;;5064692;28;20124;-76
2022/01/26 03:40:28;;;;;;;74.78;20.90;;;;;;;;;;5047676;28;20102;-76
2022/01/26 03:42:54;;;;;;;70.97;19.92;;;;;;;;;;5047617;28;20432;-76
2022/01/26 03:45:21;;;;;;;63.42;19.60;;;;;;;;;;5047957;28;20241;-76
2022/01/26 03:47:47;;;;;;;76.80;19.27;;;;;;;;;;5047654;28;20041;-77
2022/01/26 03:50:13;;;;;;;69.72;20.85;;;;;;;;;;5047852;28;20032;-76
2022/01/26 03:52:39;;;;;;;70.68;19.83;;;;;;;;;;5066561;28;20041;-76
2022/01/26 03:55:05;;;;;;;70.00;19.92;;;;;;;;;;5067770;28;20056;-76
2022/01/26 03:57:31;;;;;;;70.90;19.40;;;;;;;;;;5051342;28;20043;-76
2022/01/26 03:59:57;;;;;;;68.72;20.92;;;;;;;;;;5050792;28;20119;-77
2022/01/26 04:02:23;;;;;;;67.82;20.02;;;;;;;;;;5051382;28;20045;-76
2022/01/26 04:04:56;;;;;;;73.35;20.40;;;;;;;;;;5050773;28;20037;-76
2022/01/26 04:07:22;;;;;;;72.50;19.45;;;;;;;;;;5069026;28;20044;-77
2022/01/26 04:09:48;;;;;;;67.13;20.08;;;;;;;;;;5067492;28;20059;-77
2022/01/26 04:12:14;;;;;;;69.20;19.20;;;;;;;;;;5067701;28;20044;-77
2022/01/26 04:14:44;;;;;;;73.70;20.52;;;;;;;;;;5050825;28;20488;-77
2022/01/26 04:17:10;;;;;;;64.25;19.35;;;;;;;;;;5067625;28;20064;-77
2022/01/26 04:19:39;;;;;;;68.90;19.73;;;;;;;;;;5067984;28;20440;-77
2022/01/26 04:24:41;;;;;;;68.28;19.02;;;;;;;;;;5051145;28;20377;-77
2022/01/26 04:27:56;;;;;;;68.05;18.90;;;;;;;;;;5071528;28;20037;-76
2022/01/26 04:29:54;;;;;;;71.25;20.27;;;;;;;;;;5068302;28;20041;-76
2022/01/26 04:32:20;;;;;;;65.95;18.48;;;;;;;;;;5054927;28;20097;-77
2022/01/26 04:34:48;;;;;;;66.05;19.48;;;;;;;;;;5070458;28;20047;-77
2022/01/26 04:40:04;;;;;;;60.20;18.45;;;;;;;;;;5071003;28;20044;-76
2022/01/26 04:45:15;;;;;;;65.28;18.17;;;;;;;;;;5071298;28;20048;-77
2022/01/26 04:47:41;;;;;;;65.93;18.67;;;;;;;;;;5054093;28;20047;-77
2022/01/26 04:50:08;;;;;;;63.10;18.27;;;;;;;;;;5071425;28;20066;-77
2022/01/26 04:52:34;;;;;;;66.32;17.88;;;;;;;;;;5071210;28;20170;-77
2022/01/26 04:55:00;;;;;;;59.90;18.13;;;;;;;;;;5070526;28;20086;-77
2022/01/26 04:57:26;;;;;;;62.13;17.92;;;;;;;;;;5070435;28;20040;-77
2022/01/26 04:59:52;;;;;;;62.60;19.00;;;;;;;;;;5053630;28;20123;-77
2022/01/26 05:02:18;;;;;;;66.47;17.67;;;;;;;;;;5065798;28;20047;-76
2022/01/26 05:04:44;;;;;;;70.35;19.02;;;;;;;;;;5070226;28;20042;-77
2022/01/26 05:07:10;;;;;;;62.78;17.70;;;;;;;;;;5069951;28;20480;-77
2022/01/26 05:09:37;;;;;;;61.70;17.23;;;;;;;;;;5071038;28;20044;-77
2022/01/26 05:12:03;;;;;;;62.67;18.92;;;;;;;;;;5054357;28;20054;-77
2022/01/26 05:14:29;;;;;;;60.95;18.00;;;;;;;;;;5071004;28;20047;-76
2022/01/26 05:16:55;;;;;;;64.63;18.23;;;;;;;;;;5053067;28;20139;-77
2022/01/26 05:19:22;;;;;;;60.38;18.38;;;;;;;;;;5054222;28;20102;-77
2022/01/26 05:21:48;;;;;;;59.38;18.20;;;;;;;;;;5053847;28;20041;-77
2022/01/26 05:24:14;;;;;;;66.00;19.10;;;;;;;;;;5070475;28;20047;-77
2022/01/26 05:26:40;;;;;;;63.65;18.60;;;;;;;;;;5069933;28;20048;-76
2022/01/26 05:29:08;;;;;;;60.50;18.15;;;;;;;;;;5070812;28;20434;-77
2022/01/26 05:31:34;;;;;;;57.28;17.73;;;;;;;;;;5070238;28;20041;-77
2022/01/26 05:34:01;;;;;;;59.58;18.67;;;;;;;;;;5071808;28;20075;-77
2022/01/26 05:36:27;;;;;;;54.92;16.95;;;;;;;;;;5070182;28;20043;-77
2022/01/26 05:38:53;;;;;;;56.08;17.73;;;;;;;;;;5052797;28;20472;-77
2022/01/26 05:41:19;;;;;;;65.95;18.73;;;;;;;;;;5070241;28;20481;-77
2022/01/26 05:43:45;;;;;;;64.28;18.13;;;;;;;;;;5036599;28;20102;-77
2022/01/26 05:46:22;;;;;;;68.43;19.20;;;;;;;;;;5070319;28;20503;-76
2022/01/26 05:48:49;;;;;;;63.40;18.70;;;;;;;;;;5053615;28;20048;-77
2022/01/26 05:51:16;;;;;;;61.75;17.95;;;;;;;;;;5069949;28;20060;-77
2022/01/26 05:53:42;;;;;;;67.28;21.27;;;;;;;;;;5069656;28;20053;-77
2022/01/26 05:56:09;;;;;;;65.25;19.25;;;;;;;;;;5103973;28;20041;-76
2022/01/26 05:58:35;;;;;;;69.55;19.50;;;;;;;;;;5070301;28;20052;-77
2022/01/26 06:01:01;;;;;;;63.00;19.73;;;;;;;;;;5069416;28;20049;-77
2022/01/26 06:03:28;;;;;;;64.88;19.38;;;;;;;;;;5070170;28;20059;-77
2022/01/26 06:05:54;;;;;;;68.20;18.88;;;;;;;;;;5069675;28;20040;-77
2022/01/26 06:08:24;;;;;;;57.67;17.95;;;;;;;;;;5069648;28;20127;-77
2022/01/26 06:10:51;;;;;;;62.05;20.73;;;;;;;;;;5069687;28;20396;-77
2022/01/26 06:13:17;;;;;;;62.15;19.27;;;;;;;;;;5053020;28;20070;-77
2022/01/26 06:15:44;;;;;;;64.85;19.88;;;;;;;;;;5052586;28;20067;-77
2022/01/26 06:18:10;;;;;;;64.40;19.52;;;;;;;;;;5069598;28;20063;-77
2022/01/26 06:20:37;;;;;;;67.80;21.52;;;;;;;;;;5052905;28;20089;-77
2022/01/26 06:23:03;;;;;;;69.10;21.48;;;;;;;;;;5052974;28;20391;-77
2022/01/26 06:25:30;;;;;;;71.15;22.40;;;;;;;;;;5052691;28;20043;-77
2022/01/26 06:27:59;;;;;;;68.30;21.80;;;;;;;;;;5069064;28;20078;-77
2022/01/26 06:30:26;;;;;;;64.88;20.67;;;;;;;;;;5069249;28;20044;-77
2022/01/26 06:32:52;;;;;;;67.93;21.70;;;;;;;;;;5069040;28;20487;-76
2022/01/26 06:35:18;;;;;;;68.35;22.58;;;;;;;;;;5052921;28;20519;-77
2022/01/26 06:37:45;;;;;;;80.35;23.48;;;;;;;;;;5068870;28;20093;-77
2022/01/26 06:40:11;;;;;;;74.80;25.00;;;;;;;;;;5069353;28;20052;-77
2022/01/26 06:42:51;;;;;;;76.22;24.13;;;;;;;;;;5068531;28;20067;-77
2022/01/26 06:45:21;;;;;;;72.45;22.10;;;;;;;;;;5069007;28;20127;-77
2022/01/26 06:50:13;;;;;;;75.10;25.85;;;;;;;;;;5069133;28;20051;-77
2022/01/26 06:52:43;;;;;;;76.03;25.30;;;;;;;;;;5068396;28;20055;-77
2022/01/26 06:55:09;;;;;;;75.72;25.40;;;;;;;;;;5052212;28;20052;-77
2022/01/26 06:57:35;;;;;;;74.18;25.48;;;;;;;;;;5068583;28;20102;-77
2022/01/26 07:00:01;;;;;;;78.78;25.55;;;;;;;;;;5069965;28;20388;-76
2022/01/26 07:02:27;;;;;;;85.47;27.50;;;;;;;;;;5069846;28;20045;-76
2022/01/26 07:04:54;;;;;;;85.60;26.83;;;;;;;;;;5052110;28;20396;-77
2022/01/26 07:07:20;;;;;;;85.13;26.92;;;;;;;;;;5068562;28;20051;-77
2022/01/26 07:09:46;;;;;;;88.15;27.35;;;;;;;;;;5068645;28;20366;-77
2022/01/26 07:12:13;;;;;;;92.65;29.88;;;;;;;;;;5068507;28;20102;-77
2022/01/26 07:22:55;;;;;;;98.05;30.98;;;;;;;;;;5069278;28;20127;-77
2022/01/26 07:25:21;;;;;;;100.90;32.30;;;;;;;;;;5068611;28;20539;-77
2022/01/26 07:27:47;;;;;;;102.72;29.48;;;;;;;;;;5051745;28;20637;-77
2022/01/26 07:30:13;;;;;;;103.93;31.73;;;;;;;;;;5068080;28;20048;-76
2022/01/26 07:32:39;;;;;;;101.22;31.23;;;;;;;;;;5067724;28;20071;-77
2022/01/26 07:35:05;;;;;;;109.70;33.30;;;;;;;;;;5068047;28;20048;-77
2022/01/26 07:37:32;;;;;;;105.45;33.58;;;;;;;;;;5068138;28;20051;-77
2022/01/26 07:40:04;;;;;;;106.78;33.45;;;;;;;;;;5068040;28;20562;-76
2022/01/26 07:42:31;;;;;;;110.55;34.50;;;;;;;;;;5068184;28;20098;-77
2022/01/26 07:44:57;;;;;;;109.35;33.47;;;;;;;;;;5050970;28;20035;-77
2022/01/26 07:47:23;;;;;;;102.40;33.75;;;;;;;;;;5067547;28;20060;-76
2022/01/26 07:49:54;;;;;;;112.78;35.63;;;;;;;;;;5067900;28;20392;-77
2022/01/26 07:52:20;;;;;;;118.18;35.53;;;;;;;;;;5052159;28;20051;-77
2022/01/26 07:54:50;;;;;;;118.45;34.30;;;;;;;;;;5050597;28;20091;-77
2022/01/26 07:57:17;;;;;;;110.45;34.05;;;;;;;;;;5051467;28;20135;-77
2022/01/26 07:59:43;;;;;;;117.43;35.33;;;;;;;;;;5067598;28;20530;-77
2022/01/26 08:02:09;;;;;;;121.00;35.83;;;;;;;;;;5067349;28;20080;-77
2022/01/26 08:04:35;;;;;;;116.93;34.63;;;;;;;;;;5068017;28;20040;-77
2022/01/26 08:07:01;;;;;;;127.15;37.47;;;;;;;;;;5067470;28;20495;-77
2022/01/26 08:09:27;;;;;;;119.80;36.67;;;;;;;;;;5067620;28;20127;-76
2022/01/26 08:11:54;;;;;;;119.90;37.60;;;;;;;;;;5067616;28;20051;-77
2022/01/26 08:14:20;;;;;;;134.13;36.47;;;;;;;;;;5068243;28;20123;-77
2022/01/26 08:16:46;;;;;;;124.13;37.35;;;;;;;;;;5068120;28;20101;-76
2022/01/26 08:19:13;;;;;;;118.10;36.30;;;;;;;;;;5068809;28;20637;-77
2022/01/26 08:21:41;;;;;;;119.53;37.05;;;;;;;;;;5067216;28;20087;-77
2022/01/26 08:24:13;;;;;;;128.95;38.97;;;;;;;;;;5051152;28;20546;-77
2022/01/26 08:26:44;;;;;;;129.13;37.97;;;;;;;;;;5067792;28;20055;-77
2022/01/26 08:29:26;;;;;;;134.68;40.42;;;;;;;;;;5067579;28;20081;-76
2022/01/26 08:31:52;;;;;;;136.05;40.53;;;;;;;;;;5067465;28;20400;-77
2022/01/26 08:34:18;;;;;;;138.98;41.58;;;;;;;;;;5067935;28;20052;-77
2022/01/26 08:36:45;;;;;;;143.63;42.80;;;;;;;;;;5067410;28;20399;-77
2022/01/26 08:39:11;;;;;;;151.23;44.53;;;;;;;;;;5067139;28;20359;-76
2022/01/26 08:41:37;;;;;;;162.02;45.97;;;;;;;;;;5050523;28;20045;-77
2022/01/26 08:44:04;;;;;;;165.32;46.03;;;;;;;;;;5050307;28;20135;-77
2022/01/26 08:46:30;;;;;;;155.45;43.92;;;;;;;;;;5051090;28;20562;-77
2022/01/26 08:48:56;;;;;;;145.55;42.10;;;;;;;;;;5066859;28;20059;-76
2022/01/26 08:51:23;;;;;;;130.23;39.13;;;;;;;;;;5067966;28;20510;-77
2022/01/26 08:53:49;;;;;;;121.10;37.53;;;;;;;;;;5067027;28;20045;-77
2022/01/26 08:56:16;;;;;;;115.55;35.60;;;;;;;;;;5050861;28;20041;-77
2022/01/26 08:58:42;;;;;;;121.13;35.58;;;;;;;;;;5066816;28;20048;-76
2022/01/26 09:01:08;;;;;;;115.20;34.13;;;;;;;;;;5068569;28;20080;-77
2022/01/26 09:03:39;;;;;;;103.50;32.53;;;;;;;;;;5068346;28;20063;-76
2022/01/26 09:06:06;;;;;;;82.78;29.65;;;;;;;;;;5068568;28;20079;-76
2022/01/26 09:08:32;;;;;;;84.72;30.20;;;;;;;;;;5067462;28;20058;-77
2022/01/26 09:11:01;;;;;;;82.68;29.58;;;;;;;;;;5066873;28;20049;-77
2022/01/26 09:13:30;;;;;;;84.35;30.05;;;;;;;;;;5070039;28;20518;-76
2022/01/26 09:15:56;;;;;;;83.50;29.17;;;;;;;;;;5070589;28;20448;-77
2022/01/26 09:18:33;;;;;;;83.78;29.08;;;;;;;;;;5053719;28;20109;-77
2022/01/26 09:20:59;;;;;;;90.63;30.98;;;;;;;;;;5070067;28;20041;-77
2022/01/26 09:23:25;;;;;;;84.20;28.98;;;;;;;;;;5070969;28;20063;-77
2022/01/26 09:25:51;;;;;;;83.65;29.02;;;;;;;;;;5070262;28;20484;-77
2022/01/26 09:28:17;;;;;;;90.18;30.45;;;;;;;;;;5053788;28;20137;-76
2022/01/26 09:30:43;;;;;;;84.75;28.02;;;;;;;;;;5053446;28;20041;-77
2022/01/26 09:33:09;;;;;;;82.38;29.10;;;;;;;;;;5070716;28;20159;-77
2022/01/26 09:35:35;;;;;;;78.13;28.08;;;;;;;;;;5070225;28;20036;-76
2022/01/26 09:38:02;;;;;;;86.93;28.45;;;;;;;;;;5069778;28;20119;-76
2022/01/26 09:40:28;;;;;;;82.57;27.60;;;;;;;;;;5070322;28;20090;-76
2022/01/26 09:42:55;;;;;;;81.32;28.05;;;;;;;;;;5069939;28;20458;-77
2022/01/26 09:45:22;;;;;;;80.85;28.00;;;;;;;;;;5070496;28;20139;-77
2022/01/26 09:47:48;;;;;;;81.57;28.08;;;;;;;;;;5069997;28;20550;-76
2022/01/26 09:50:14;;;;;;;87.78;29.33;;;;;;;;;;5053291;28;20036;-76
2022/01/26 09:52:47;;;;;;;88.57;28.65;;;;;;;;;;5053169;28;20114;-77
2022/01/26 09:55:14;;;;;;;83.57;27.33;;;;;;;;;;5053312;28;20048;-76
2022/01/26 09:57:42;;;;;;;84.22;28.73;;;;;;;;;;5053002;28;20127;-76
2022/01/26 10:00:08;;;;;;;86.10;29.58;;;;;;;;;;5069886;28;20080;-77
2022/01/26 10:02:35;;;;;;;84.28;27.58;;;;;;;;;;5069923;28;20040;-77
2022/01/26 10:05:04;;;;;;;86.55;29.80;;;;;;;;;;5069324;28;20041;-76
2022/01/26 10:07:46;;;;;;;83.07;28.48;;;;;;;;;;5069933;28;20282;-76
2022/01/26 10:15:38;;;;;;;88.20;28.70;;;;;;;;;;5069663;28;20048;-77
2022/01/26 10:18:13;;;;;;;84.90;28.52;;;;;;;;;;5070302;28;20519;-77
2022/01/26 10:20:47;;;;;;;82.95;29.67;;;;;;;;;;5068956;28;20047;-77
2022/01/26 10:23:17;;;;;;;86.50;29.13;;;;;;;;;;5069675;28;20468;-77
2022/01/26 10:25:44;;;;;;;87.03;27.45;;;;;;;;;;5069011;28;20079;-76
2022/01/26 10:28:11;;;;;;;86.68;29.80;;;;;;;;;;5069503;28;20119;-77
2022/01/26 10:30:38;;;;;;;85.93;29.33;;;;;;;;;;5036154;28;20033;-77
2022/01/26 10:33:08;;;;;;;84.53;28.42;;;;;;;;;;5069044;28;20040;-76
2022/01/26 10:35:34;;;;;;;81.57;27.05;;;;;;;;;;5069359;28;20040;-76
2022/01/26 10:38:01;;;;;;;80.88;27.70;;;;;;;;;;5068622;28;20221;-76
2022/01/26 10:40:28;;;;;;;79.13;27.70;;;;;;;;;;5052222;28;20543;-77
2022/01/26 10:42:54;;;;;;;80.90;29.15;;;;;;;;;;5069116;28;20064;-76
2022/01/26 10:45:33;;;;;;;80.93;28.58;;;;;;;;;;5068922;28;20056;-77
2022/01/26 10:48:20;;;;;;;80.65;29.00;;;;;;;;;;5068334;28;20048;-77
2022/01/26 10:51:19;;;;;;;78.90;27.48;;;;;;;;;;5068452;28;20079;-77
2022/01/26 10:53:39;;;;;;;78.43;26.98;;;;;;;;;;5069194;28;20047;-77
2022/01/26 10:56:05;;;;;;;71.43;26.55;;;;;;;;;;5052023;28;20048;-77
2022/01/26 10:58:32;;;;;;;71.15;25.88;;;;;;;;;;5069080;28;20049;-76
2022/01/26 11:00:59;;;;;;;75.88;27.05;;;;;;;;;;5068136;28;20067;-77
2022/01/26 11:03:25;;;;;;;72.35;25.98;;;;;;;;;;5068955;28;20197;-76
2022/01/26 11:05:52;;;;;;;74.28;27.38;;;;;;;;;;5068133;28;20068;-77
2022/01/26 11:08:18;;;;;;;77.95;27.70;;;;;;;;;;5068369;28;20094;-77
2022/01/26 11:10:46;;;;;;;76.95;26.25;;;;;;;;;;5035072;28;20044;-77
2022/01/26 11:13:22;;;;;;;79.60;27.67;;;;;;;;;;5068560;28;20123;-77
2022/01/26 11:15:48;;;;;;;77.97;27.70;;;;;;;;;;5068143;28;20040;-77
2022/01/26 11:18:21;;;;;;;81.28;27.02;;;;;;;;;;5068355;28;20512;-77
2022/01/26 11:20:52;;;;;;;76.15;27.45;;;;;;;;;;5051112;28;20127;-77
2022/01/26 11:23:33;;;;;;;76.00;28.42;;;;;;;;;;5068818;28;20041;-76
2022/01/26 11:25:59;;;;;;;80.78;27.38;;;;;;;;;;5068148;28;20456;-77
2022/01/26 11:28:27;;;;;;;74.88;27.13;;;;;;;;;;5068208;28;20040;-77
2022/01/26 11:30:55;;;;;;;78.35;27.70;;;;;;;;;;5067941;28;20045;-76
2022/01/26 11:33:24;;;;;;;74.13;25.33;;;;;;;;;;5067943;28;20400;-77
2022/01/26 11:35:52;;;;;;;77.95;26.98;;;;;;;;;;5067304;28;20461;-76
2022/01/26 11:47:18;;;;;;;75.18;26.80;;;;;;;;;;5064525;28;20040;-77
2022/01/26 11:49:44;;;;;;;77.53;27.52;;;;;;;;;;5067662;28;20046;-77
2022/01/26 11:52:21;;;;;;;73.38;25.58;;;;;;;;;;5067527;28;20043;-77
2022/01/26 11:54:59;;;;;;;78.07;25.88;;;;;;;;;;5051027;28;20083;-77
2022/01/26 11:57:40;;;;;;;71.72;26.65;;;;;;;;;;5051237;28;20079;-77
2022/01/26 12:00:11;;;;;;;71.55;25.15;;;;;;;;;;5050929;28;20048;-77
2022/01/26 12:02:53;;;;;;;68.03;25.33;;;;;;;;;;5051604;28;20056;-77
2022/01/26 12:05:23;;;;;;;74.25;24.70;;;;;;;;;;5068061;28;20047;-77
2022/01/26 12:07:54;;;;;;;71.78;25.40;;;;;;;;;;5067761;28;20142;-77
2022/01/26 12:10:28;;;;;;;68.28;25.05;;;;;;;;;;5068267;28;20728;-77
2022/01/26 12:12:59;;;;;;;74.50;26.05;;;;;;;;;;5067318;28;20120;-77
2022/01/26 12:15:31;;;;;;;72.35;25.33;;;;;;;;;;5051285;28;20094;-77
2022/01/26 12:18:15;;;;;;;63.53;24.35;;;;;;;;;;5068547;28;20079;-77
2022/01/26 12:37:04;;;;;;;67.72;24.77;;;;;;;;;;5067946;28;20059;-76
2022/01/26 12:42:39;;;;;;;71.85;22.27;;;;;;;;;;5043920;28;20056;-77
2022/01/26 12:45:06;;;;;;;64.47;23.67;;;;;;;;;;5052826;28;20049;-76
2022/01/26 12:47:32;;;;;;;62.55;22.48;;;;;;;;;;5070348;28;20479;-77
2022/01/26 12:49:59;;;;;;;65.50;23.23;;;;;;;;;;5071015;28;20048;-77
2022/01/26 12:52:25;;;;;;;65.78;23.63;;;;;;;;;;5071038;28;20033;-76
2022/01/26 12:54:51;;;;;;;67.43;22.60;;;;;;;;;;5070162;28;20044;-77
2022/01/26 12:57:17;;;;;;;66.97;22.98;;;;;;;;;;5071168;28;20040;-77
2022/01/26 12:59:44;;;;;;;67.93;22.73;;;;;;;;;;5071160;28;20056;-76
2022/01/26 13:02:10;;;;;;;61.75;22.45;;;;;;;;;;5071302;28;20047;-77
2022/01/26 13:04:37;;;;;;;62.95;22.65;;;;;;;;;;5071343;28;20441;-77
2022/01/26 13:07:04;;;;;;;65.07;23.17;;;;;;;;;;5070833;28;20041;-77
2022/01/26 13:09:31;;;;;;;71.45;24.27;;;;;;;;;;5070683;28;20046;-77
2022/01/26 13:11:58;;;;;;;61.88;23.23;;;;;;;;;;5054272;28;20040;-76
2022/01/26 13:14:27;;;;;;;63.60;23.42;;;;;;;;;;5053973;28;20048;-76
2022/01/26 13:28:20;;;;;;;73.20;24.67;;;;;;;;;;5070820;28;20072;-76
2022/01/26 13:41:05;;;;;;;80.40;29.13;;;;;;;;;;5070081;28;20132;-77
2022/01/26 13:51:37;;;;;;;67.15;26.35;;;;;;;;;;5069893;28;20044;-77
2022/01/26 14:01:48;;;;;;;66.35;24.73;;;;;;;;;;5069658;28;20055;-77
2022/01/26 14:04:16;;;;;;;66.93;23.45;;;;;;;;;;5070071;28;20090;-77
2022/01/26 14:06:42;;;;;;;67.97;23.10;;;;;;;;;;5070202;28;20044;-77
2022/01/26 14:09:08;;;;;;;58.58;22.27;;;;;;;;;;5053001;28;20131;-77
2022/01/26 14:11:34;;;;;;;61.03;22.35;;;;;;;;;;5071354;28;20047;-77
2022/01/26 14:14:02;;;;;;;62.55;23.42;;;;;;;;;;5069210;28;20071;-77
2022/01/26 14:16:33;;;;;;;65.68;23.55;;;;;;;;;;5069718;28;20055;-77
2022/01/26 14:26:55;;;;;;;68.57;25.52;;;;;;;;;;5069015;28;20055;-77
2022/01/26 14:29:32;;;;;;;68.60;25.52;;;;;;;;;;5069569;28;20076;-77
2022/01/26 14:39:34;;;;;;;76.30;28.05;;;;;;;;;;5068898;28;20056;-77
2022/01/26 14:50:59;;;;;;;85.50;31.65;;;;;;;;;;5068695;28;20416;-77
2022/01/26 15:34:32;;;;;;;66.15;22.48;;;;;;;;;;5034165;28;20080;-77
2022/01/26 15:42:46;;;;;;;76.75;28.40;;;;;;;;;;5068129;28;20106;-77
2022/01/26 15:50:48;;;;;;;81.00;30.10;;;;;;;;;;5067702;28;20430;-77
2022/01/26 15:57:20;;;;;;;98.50;31.98;;;;;;;;;;5067926;28;20441;-77
2022/01/26 17:12:57;;;;;;;67.80;24.10;;;;;;;;;;5070305;28;20044;-79
2022/01/26 17:37:48;;;;;;;57.30;21.23;;;;;;;;;;5069131;28;20492;-76
2022/01/26 18:13:11;;;;;;;38.63;15.35;;;;;;;;;;5069429;28;20048;-76
2022/01/26 18:15:40;;;;;;;39.50;14.27;;;;;;;;;;5069696;28;20098;-76
2022/01/26 18:50:04;;;;;;;43.15;15.98;;;;;;;;;;5068791;28;20044;-77
2022/01/26 18:52:32;;;;;;;44.28;15.75;;;;;;;;;;5068795;28;20045;-77
2022/01/26 18:54:58;;;;;;;34.95;14.13;;;;;;;;;;5068432;28;20056;-76
2022/01/26 18:57:24;;;;;;;37.75;15.00;;;;;;;;;;5086122;28;20388;-77
2022/01/26 18:59:50;;;;;;;42.72;14.85;;;;;;;;;;5069085;28;20075;-77
2022/01/26 19:02:16;;;;;;;47.95;16.13;;;;;;;;;;5068702;28;20103;-76
2022/01/26 19:04:46;;;;;;;37.72;14.60;;;;;;;;;;5068711;28;20043;-76
2022/01/26 19:07:12;;;;;;;41.88;15.30;;;;;;;;;;5068349;28;20063;-77
2022/01/26 19:09:45;;;;;;;38.25;15.07;;;;;;;;;;5068693;28;20040;-77
2022/01/26 19:12:14;;;;;;;38.60;15.40;;;;;;;;;;5068585;28;20054;-77
2022/01/26 19:14:45;;;;;;;39.08;14.68;;;;;;;;;;5068571;28;20037;-77
2022/01/26 19:17:21;;;;;;;35.38;15.13;;;;;;;;;;5067950;28;20055;-77
2022/01/26 19:27:25;;;;;;;47.33;17.08;;;;;;;;;;5068350;28;20083;-76
2022/01/26 19:50:55;;;;;;;51.50;19.23;;;;;;;;;;5067390;28;20040;-77
2022/01/26 19:53:21;;;;;;;48.20;20.15;;;;;;;;;;5051028;28;20044;-77
2022/01/26 19:55:47;;;;;;;50.63;20.40;;;;;;;;;;5050446;28;20044;-77
2022/01/26 19:58:14;;;;;;;54.33;21.27;;;;;;;;;;5050654;28;20427;-76
2022/01/26 20:00:43;;;;;;;53.13;21.48;;;;;;;;;;5068389;28;20043;-77
2022/01/26 20:03:10;;;;;;;55.38;20.88;;;;;;;;;;5067371;28;20044;-77
2022/01/26 20:05:36;;;;;;;49.15;20.13;;;;;;;;;;5051060;28;20147;-76
2022/01/26 20:08:10;;;;;;;54.72;21.70;;;;;;;;;;5051212;28;20389;-77
2022/01/26 20:10:42;;;;;;;61.92;22.52;;;;;;;;;;5069365;28;20123;-77
2022/01/26 20:13:19;;;;;;;52.38;21.25;;;;;;;;;;5067515;28;20056;-77
2022/01/26 20:15:45;;;;;;;53.60;21.80;;;;;;;;;;5051606;28;20041;-77
2022/01/26 20:18:11;;;;;;;51.80;21.45;;;;;;;;;;5067255;28;20147;-77
2022/01/26 20:20:37;;;;;;;54.85;21.30;;;;;;;;;;5051235;28;20048;-76
2022/01/26 20:23:03;;;;;;;53.03;20.48;;;;;;;;;;5034117;28;20076;-77
2022/01/26 20:25:31;;;;;;;54.67;22.35;;;;;;;;;;5051152;28;20094;-77
2022/01/26 20:28:04;;;;;;;51.65;20.88;;;;;;;;;;5067429;28;20098;-77
2022/01/26 20:30:33;;;;;;;55.90;22.35;;;;;;;;;;5050834;28;20041;-77
2022/01/26 20:32:59;;;;;;;56.30;21.52;;;;;;;;;;5067205;28;20066;-77
2022/01/26 20:35:25;;;;;;;52.85;21.75;;;;;;;;;;5068502;28;20050;-76
2022/01/26 20:37:51;;;;;;;52.60;21.67;;;;;;;;;;5067368;28;20041;-77
2022/01/26 20:40:18;;;;;;;52.15;21.30;;;;;;;;;;5067756;28;20586;-76
2022/01/26 20:42:45;;;;;;;51.03;21.75;;;;;;;;;;5067884;28;20122;-77
2022/01/26 20:45:11;;;;;;;57.67;22.13;;;;;;;;;;5050738;28;20417;-77
2022/01/26 20:47:38;;;;;;;55.25;21.35;;;;;;;;;;5067516;28;20051;-76
2022/01/26 20:50:05;;;;;;;52.95;21.70;;;;;;;;;;5067039;28;20150;-77
2022/01/26 20:52:32;;;;;;;52.67;20.85;;;;;;;;;;5067889;28;20391;-77
2022/01/26 20:55:00;;;;;;;50.33;21.38;;;;;;;;;;5066878;28;20135;-77
2022/01/26 20:57:27;;;;;;;47.70;20.80;;;;;;;;;;5067526;28;20125;-76
2022/01/26 20:59:53;;;;;;;50.38;21.55;;;;;;;;;;5067101;28;20492;-77
2022/01/26 21:02:19;;;;;;;53.45;21.77;;;;;;;;;;5050558;28;20036;-77
2022/01/26 21:04:46;;;;;;;51.70;22.30;;;;;;;;;;5034261;28;20044;-77
2022/01/26 21:07:12;;;;;;;53.13;21.75;;;;;;;;;;5067533;28;20032;-77
2022/01/26 21:09:38;;;;;;;49.25;20.13;;;;;;;;;;5054904;28;20780;-77
2022/01/26 21:12:04;;;;;;;55.30;22.15;;;;;;;;;;5070316;28;20132;-77
2022/01/26 21:14:31;;;;;;;49.35;20.33;;;;;;;;;;5071047;28;20420;-77
2022/01/26 21:16:57;;;;;;;46.85;18.75;;;;;;;;;;5070484;28;20076;-77
2022/01/26 21:19:25;;;;;;;46.08;19.52;;;;;;;;;;5070755;28;20114;-77
2022/01/26 21:21:51;;;;;;;51.65;20.90;;;;;;;;;;5070793;28;20040;-77
2022/01/26 21:24:17;;;;;;;51.28;20.88;;;;;;;;;;5054457;28;20519;-77
2022/01/26 21:26:43;;;;;;;53.78;20.95;;;;;;;;;;5070982;28;20044;-77
2022/01/26 21:29:09;;;;;;;44.50;18.10;;;;;;;;;;5070423;28;20040;-77
2022/01/26 21:31:35;;;;;;;51.40;22.30;;;;;;;;;;5070625;28;20496;-76
2022/01/26 21:34:01;;;;;;;47.22;19.17;;;;;;;;;;5070026;28;20036;-77
2022/01/26 21:36:27;;;;;;;50.28;20.67;;;;;;;;;;5070737;28;20052;-76
2022/01/26 21:38:54;;;;;;;49.15;19.65;;;;;;;;;;5053004;28;20048;-77
2022/01/26 21:41:21;;;;;;;45.53;18.63;;;;;;;;;;5070324;28;20555;-77
2022/01/26 21:43:48;;;;;;;46.47;19.55;;;;;;;;;;5070788;28;20052;-77
2022/01/26 21:46:14;;;;;;;48.83;21.23;;;;;;;;;;5069920;28;20048;-77
2022/01/26 21:48:40;;;;;;;52.67;20.88;;;;;;;;;;5070373;28;20063;-77